Time;durP1;ratioP1;P1;durP2;ratioP2;P2;SDS_P1;SDS_P2;PMS_P1;PMS_P2;Temp;Humidity;BMP_temperature;BMP_pressure;BME280_temperature;BME280_humidity;BME280_pressure;Samples;Min_cycle;Max_cycle;Signal;HPM_P1;HPM_P2
2021/08/10 00:01:17;;;;;;;7.18;3.38;;;;;;;;;;5056919;28;20037;-82
2021/08/10 00:03:44;;;;;;;5.00;3.70;;;;;;;;;;5057795;28;20032;-82
2021/08/10 00:06:10;;;;;;;5.13;3.30;;;;;;;;;;5057672;28;20407;-82
2021/08/10 00:08:36;;;;;;;7.68;3.85;;;;;;;;;;5057721;28;20052;-82
2021/08/10 00:11:02;;;;;;;8.07;3.78;;;;;;;;;;5057678;28;20023;-82
2021/08/10 00:13:28;;;;;;;8.43;4.13;;;;;;;;;;5056528;28;20056;-82
2021/08/10 00:15:54;;;;;;;5.72;3.53;;;;;;;;;;5057428;28;20021;-82
2021/08/10 00:18:21;;;;;;;7.88;3.83;;;;;;;;;;5056526;28;20025;-82
2021/08/10 00:20:47;;;;;;;6.05;3.78;;;;;;;;;;5057823;28;20215;-83
2021/08/10 00:23:13;;;;;;;8.52;3.78;;;;;;;;;;5057578;28;20070;-81
2021/08/10 00:25:39;;;;;;;8.60;4.13;;;;;;;;;;5057278;28;20060;-81
2021/08/10 00:28:05;;;;;;;7.60;4.50;;;;;;;;;;5057207;28;20032;-81
2021/08/10 00:30:31;;;;;;;7.00;3.90;;;;;;;;;;5057201;28;20029;-84
2021/08/10 00:32:57;;;;;;;7.25;4.00;;;;;;;;;;5055776;28;20411;-84
2021/08/10 00:35:24;;;;;;;7.63;4.13;;;;;;;;;;5057025;28;20029;-84
2021/08/10 00:37:50;;;;;;;7.32;4.15;;;;;;;;;;5057151;28;20461;-84
2021/08/10 00:40:18;;;;;;;7.15;4.20;;;;;;;;;;5057119;28;20411;-84
2021/08/10 00:42:44;;;;;;;7.97;4.60;;;;;;;;;;5057299;28;20066;-84
2021/08/10 00:45:10;;;;;;;11.80;5.05;;;;;;;;;;5057211;28;20029;-84
2021/08/10 00:47:36;;;;;;;7.57;4.18;;;;;;;;;;5056919;28;20025;-84
2021/08/10 00:50:03;;;;;;;7.30;4.20;;;;;;;;;;5057093;28;20040;-84
2021/08/10 00:52:29;;;;;;;6.55;3.90;;;;;;;;;;5056209;28;20047;-84
2021/08/10 00:54:56;;;;;;;9.05;4.40;;;;;;;;;;5057125;28;20032;-84
2021/08/10 00:57:22;;;;;;;9.23;4.80;;;;;;;;;;5057067;28;20408;-84
2021/08/10 00:59:48;;;;;;;9.95;4.80;;;;;;;;;;5056976;28;20021;-84
2021/08/10 01:02:14;;;;;;;9.13;4.68;;;;;;;;;;5057015;28;20041;-84
2021/08/10 01:04:40;;;;;;;7.82;4.88;;;;;;;;;;5057090;28;20153;-83
2021/08/10 01:07:24;;;;;;;9.23;4.85;;;;;;;;;;5056069;28;20040;-84
2021/08/10 01:09:58;;;;;;;7.38;4.72;;;;;;;;;;5057093;28;20099;-84
2021/08/10 01:12:27;;;;;;;9.40;5.15;;;;;;;;;;5056782;28;20130;-84
2021/08/10 01:15:00;;;;;;;6.95;5.00;;;;;;;;;;5056907;28;20017;-84
2021/08/10 01:17:31;;;;;;;7.93;4.50;;;;;;;;;;5056671;28;20020;-84
2021/08/10 01:20:06;;;;;;;8.88;5.75;;;;;;;;;;5055830;28;20029;-84
2021/08/10 01:22:34;;;;;;;9.20;5.28;;;;;;;;;;5056750;28;20029;-84
2021/08/10 01:25:03;;;;;;;10.70;5.30;;;;;;;;;;5056726;28;20056;-84
2021/08/10 01:27:32;;;;;;;9.48;5.80;;;;;;;;;;5056945;28;20315;-85
2021/08/10 01:30:07;;;;;;;10.40;5.40;;;;;;;;;;5056133;28;20037;-85
2021/08/10 01:32:34;;;;;;;6.60;5.25;;;;;;;;;;5056912;28;20033;-85
2021/08/10 01:35:01;;;;;;;9.70;5.25;;;;;;;;;;5056720;28;20021;-84
2021/08/10 01:37:28;;;;;;;6.70;4.97;;;;;;;;;;5056500;28;20043;-84
2021/08/10 01:40:06;;;;;;;6.15;5.30;;;;;;;;;;5055607;28;20025;-84
2021/08/10 01:42:32;;;;;;;8.45;5.30;;;;;;;;;;5057170;28;20403;-84
2021/08/10 01:45:00;;;;;;;7.90;4.93;;;;;;;;;;5060470;28;20021;-84
2021/08/10 01:47:27;;;;;;;6.97;4.90;;;;;;;;;;5059158;28;20108;-84
2021/08/10 01:49:53;;;;;;;11.30;5.50;;;;;;;;;;5060321;28;20364;-84
2021/08/10 01:52:21;;;;;;;7.18;5.30;;;;;;;;;;5059137;28;20068;-84
2021/08/10 01:54:48;;;;;;;7.60;5.10;;;;;;;;;;5059388;28;20041;-84
2021/08/10 01:57:17;;;;;;;7.35;5.10;;;;;;;;;;5060208;28;20021;-84
2021/08/10 01:59:44;;;;;;;6.82;4.93;;;;;;;;;;5060220;28;20087;-84
2021/08/10 02:02:10;;;;;;;6.15;4.57;;;;;;;;;;5060396;28;20024;-84
2021/08/10 02:04:36;;;;;;;8.77;5.38;;;;;;;;;;5059092;28;20032;-84
2021/08/10 02:07:02;;;;;;;9.55;5.43;;;;;;;;;;5059920;28;20155;-84
2021/08/10 02:09:29;;;;;;;7.68;4.88;;;;;;;;;;5059041;28;20029;-84
2021/08/10 02:11:55;;;;;;;7.72;5.30;;;;;;;;;;5059983;28;20028;-84
2021/08/10 02:14:23;;;;;;;7.70;4.70;;;;;;;;;;5059854;28;20426;-84
2021/08/10 02:16:50;;;;;;;10.52;4.93;;;;;;;;;;5058794;28;20434;-84
2021/08/10 02:19:16;;;;;;;7.10;5.22;;;;;;;;;;5058976;28;20075;-84
2021/08/10 02:21:44;;;;;;;6.47;5.43;;;;;;;;;;5059802;28;20434;-84
2021/08/10 02:24:21;;;;;;;10.13;5.53;;;;;;;;;;5059777;28;20320;-84
2021/08/10 02:26:53;;;;;;;7.05;5.22;;;;;;;;;;5058881;28;20037;-84
2021/08/10 02:29:20;;;;;;;9.20;5.32;;;;;;;;;;5058843;28;20025;-84
2021/08/10 02:31:46;;;;;;;9.35;5.38;;;;;;;;;;5059551;28;20052;-84
2021/08/10 02:34:14;;;;;;;7.40;5.28;;;;;;;;;;5058393;28;20112;-84
2021/08/10 02:36:41;;;;;;;11.70;5.47;;;;;;;;;;5059684;28;20033;-83
2021/08/10 02:39:08;;;;;;;7.60;5.55;;;;;;;;;;5058768;28;20033;-85
2021/08/10 02:41:36;;;;;;;8.85;5.18;;;;;;;;;;5059447;28;20078;-84
2021/08/10 02:44:03;;;;;;;9.52;4.85;;;;;;;;;;5059276;28;20107;-84
2021/08/10 02:46:29;;;;;;;8.45;5.25;;;;;;;;;;5059283;28;20037;-84
2021/08/10 02:48:55;;;;;;;8.13;5.72;;;;;;;;;;5058963;28;20328;-84
2021/08/10 02:51:21;;;;;;;9.02;5.35;;;;;;;;;;5059175;28;20029;-84
2021/08/10 02:53:47;;;;;;;7.60;5.18;;;;;;;;;;5057608;28;20036;-84
2021/08/10 02:56:15;;;;;;;8.65;5.50;;;;;;;;;;5059159;28;20036;-84
2021/08/10 02:58:48;;;;;;;11.18;5.85;;;;;;;;;;5058165;28;20412;-84
2021/08/10 03:01:16;;;;;;;8.85;5.60;;;;;;;;;;5058964;28;20025;-84
2021/08/10 03:03:45;;;;;;;7.90;6.05;;;;;;;;;;5058730;28;20087;-84
2021/08/10 03:06:11;;;;;;;11.45;6.13;;;;;;;;;;5059087;28;20090;-84
2021/08/10 03:08:43;;;;;;;9.57;6.05;;;;;;;;;;5058707;28;20407;-83
2021/08/10 03:11:09;;;;;;;11.85;6.30;;;;;;;;;;5058668;28;20025;-84
2021/08/10 03:13:37;;;;;;;9.55;6.07;;;;;;;;;;5058578;28;20105;-83
2021/08/10 03:16:05;;;;;;;11.70;6.40;;;;;;;;;;5058625;28;20024;-83
2021/08/10 03:18:35;;;;;;;11.15;6.15;;;;;;;;;;5058410;28;20028;-83
2021/08/10 03:21:01;;;;;;;9.73;6.35;;;;;;;;;;5058505;28;20119;-83
2021/08/10 03:23:29;;;;;;;9.65;6.10;;;;;;;;;;5057380;28;20281;-83
2021/08/10 03:25:55;;;;;;;11.05;6.50;;;;;;;;;;5058278;28;20060;-84
2021/08/10 03:28:22;;;;;;;11.02;6.28;;;;;;;;;;5057682;28;20040;-84
2021/08/10 03:30:48;;;;;;;10.00;6.30;;;;;;;;;;5058290;28;20053;-84
2021/08/10 03:33:15;;;;;;;9.38;6.15;;;;;;;;;;5058347;28;20108;-84
2021/08/10 03:35:43;;;;;;;9.27;6.10;;;;;;;;;;5058470;28;20021;-85
2021/08/10 03:38:10;;;;;;;7.93;5.80;;;;;;;;;;5058296;28;20063;-85
2021/08/10 03:40:37;;;;;;;7.35;5.78;;;;;;;;;;5058399;28;20025;-84
2021/08/10 03:43:04;;;;;;;11.00;5.93;;;;;;;;;;5057407;28;20036;-84
2021/08/10 03:45:30;;;;;;;9.55;5.65;;;;;;;;;;5057183;28;20060;-83
2021/08/10 03:47:56;;;;;;;8.45;5.65;;;;;;;;;;5057892;28;20108;-84
2021/08/10 03:50:24;;;;;;;9.02;5.07;;;;;;;;;;5058196;28;20102;-84
2021/08/10 03:52:50;;;;;;;10.48;5.88;;;;;;;;;;5058167;28;20021;-83
2021/08/10 03:55:17;;;;;;;8.93;5.97;;;;;;;;;;5056730;28;20296;-83
2021/08/10 03:57:46;;;;;;;9.18;6.38;;;;;;;;;;5057878;28;20037;-83
2021/08/10 04:00:13;;;;;;;7.20;6.35;;;;;;;;;;5057891;28;20028;-83
2021/08/10 04:02:40;;;;;;;9.27;6.40;;;;;;;;;;5057341;28;20434;-83
2021/08/10 04:05:07;;;;;;;11.05;6.10;;;;;;;;;;5057853;28;20415;-84
2021/08/10 04:07:33;;;;;;;13.43;6.50;;;;;;;;;;5056809;28;20049;-84
2021/08/10 04:09:59;;;;;;;12.73;6.72;;;;;;;;;;5056725;28;20053;-84
2021/08/10 04:12:25;;;;;;;11.20;6.70;;;;;;;;;;5057651;28;20013;-83
2021/08/10 04:14:52;;;;;;;14.45;6.60;;;;;;;;;;5057340;28;20027;-83
2021/08/10 04:17:18;;;;;;;9.52;7.13;;;;;;;;;;5057360;28;20025;-83
2021/08/10 04:19:46;;;;;;;11.48;6.97;;;;;;;;;;5057367;28;20025;-84
2021/08/10 04:22:17;;;;;;;11.70;6.72;;;;;;;;;;5057588;28;20092;-85
2021/08/10 04:24:44;;;;;;;15.70;6.93;;;;;;;;;;5057560;28;20072;-85
2021/08/10 04:27:11;;;;;;;11.65;6.43;;;;;;;;;;5056099;28;20380;-84
2021/08/10 04:29:38;;;;;;;9.60;6.50;;;;;;;;;;5057299;28;20032;-84
2021/08/10 04:32:04;;;;;;;12.85;6.95;;;;;;;;;;5057335;28;20031;-84
2021/08/10 04:34:30;;;;;;;10.85;6.78;;;;;;;;;;5057308;28;20013;-85
2021/08/10 04:36:57;;;;;;;10.30;6.30;;;;;;;;;;5057595;28;20033;-85
2021/08/10 04:39:26;;;;;;;11.32;6.75;;;;;;;;;;5057521;28;20049;-85
2021/08/10 04:41:52;;;;;;;11.50;7.07;;;;;;;;;;5057546;28;20029;-85
2021/08/10 04:44:18;;;;;;;11.00;7.00;;;;;;;;;;5057344;28;20025;-85
2021/08/10 04:46:44;;;;;;;9.35;6.38;;;;;;;;;;5056195;28;20052;-84
2021/08/10 04:49:10;;;;;;;10.98;6.82;;;;;;;;;;5057077;28;20025;-85
2021/08/10 04:51:36;;;;;;;10.90;6.63;;;;;;;;;;5056380;28;20063;-84
2021/08/10 04:54:02;;;;;;;13.65;7.03;;;;;;;;;;5057199;28;20025;-84
2021/08/10 04:56:28;;;;;;;12.55;7.13;;;;;;;;;;5057126;28;20108;-83
2021/08/10 04:58:54;;;;;;;15.15;7.28;;;;;;;;;;5057057;28;20032;-84
2021/08/10 05:01:20;;;;;;;14.50;7.68;;;;;;;;;;5056963;28;20025;-84
2021/08/10 05:03:46;;;;;;;17.77;7.63;;;;;;;;;;5057158;28;20100;-84
2021/08/10 05:06:13;;;;;;;16.23;9.23;;;;;;;;;;5057040;28;20033;-84
2021/08/10 05:08:39;;;;;;;14.32;8.15;;;;;;;;;;5057028;28;20025;-84
2021/08/10 05:11:09;;;;;;;12.98;8.68;;;;;;;;;;5057074;28;20017;-85
2021/08/10 05:13:35;;;;;;;12.25;8.63;;;;;;;;;;5056042;28;20032;-85
2021/08/10 05:16:01;;;;;;;11.32;8.32;;;;;;;;;;5056973;28;20021;-85
2021/08/10 05:18:27;;;;;;;11.65;8.65;;;;;;;;;;5059416;28;20021;-85
2021/08/10 05:20:53;;;;;;;12.93;8.25;;;;;;;;;;5060114;28;20043;-83
2021/08/10 05:23:19;;;;;;;15.57;8.18;;;;;;;;;;5061013;28;20033;-85
2021/08/10 05:25:45;;;;;;;15.82;8.48;;;;;;;;;;5060701;28;20144;-84
2021/08/10 05:28:11;;;;;;;16.00;8.05;;;;;;;;;;5060831;28;20036;-85
2021/08/10 05:30:37;;;;;;;12.15;8.85;;;;;;;;;;5060694;28;20025;-84
2021/08/10 05:33:03;;;;;;;16.45;8.18;;;;;;;;;;5059533;28;20029;-84
2021/08/10 05:35:29;;;;;;;11.90;7.68;;;;;;;;;;5060097;28;20106;-84
2021/08/10 05:37:55;;;;;;;13.27;8.20;;;;;;;;;;5060704;28;20032;-84
2021/08/10 05:40:21;;;;;;;16.63;7.97;;;;;;;;;;5059818;28;20033;-84
2021/08/10 05:42:47;;;;;;;13.70;8.45;;;;;;;;;;5060641;28;20025;-84
2021/08/10 05:45:13;;;;;;;15.30;8.27;;;;;;;;;;5060506;28;20033;-84
2021/08/10 05:47:39;;;;;;;9.80;7.88;;;;;;;;;;5060604;28;20021;-85
2021/08/10 05:50:06;;;;;;;12.05;7.57;;;;;;;;;;5060185;28;20423;-83
2021/08/10 05:52:32;;;;;;;14.65;8.18;;;;;;;;;;5060294;28;20021;-84
2021/08/10 05:54:58;;;;;;;10.55;7.80;;;;;;;;;;5059267;28;20029;-83
2021/08/10 05:57:24;;;;;;;12.90;7.82;;;;;;;;;;5059545;28;20037;-83
2021/08/10 05:59:50;;;;;;;10.80;7.47;;;;;;;;;;5060155;28;20024;-82
2021/08/10 06:02:16;;;;;;;13.90;7.03;;;;;;;;;;5059180;28;20094;-83
2021/08/10 06:04:42;;;;;;;12.65;7.28;;;;;;;;;;5059038;28;20033;-83
2021/08/10 06:07:08;;;;;;;11.75;7.13;;;;;;;;;;5060016;28;20028;-83
2021/08/10 06:09:34;;;;;;;10.10;6.63;;;;;;;;;;5059115;28;20068;-83
2021/08/10 06:12:01;;;;;;;9.90;6.00;;;;;;;;;;5058807;28;20029;-83
2021/08/10 06:14:27;;;;;;;6.35;5.00;;;;;;;;;;5059874;28;20025;-84
2021/08/10 06:16:53;;;;;;;10.25;5.20;;;;;;;;;;5059674;28;20104;-83
2021/08/10 06:19:19;;;;;;;7.72;5.55;;;;;;;;;;5059611;28;20437;-83
2021/08/10 06:21:45;;;;;;;7.50;6.25;;;;;;;;;;5059581;28;20035;-83
2021/08/10 06:24:11;;;;;;;6.45;5.13;;;;;;;;;;5059634;28;20052;-83
2021/08/10 06:26:37;;;;;;;9.15;5.40;;;;;;;;;;5059572;28;20033;-83
2021/08/10 06:29:03;;;;;;;8.57;5.50;;;;;;;;;;5058038;28;20021;-83
2021/08/10 06:31:29;;;;;;;10.85;8.00;;;;;;;;;;5059128;28;20319;-83
2021/08/10 06:33:55;;;;;;;8.68;6.63;;;;;;;;;;5059619;28;20034;-83
2021/08/10 06:36:21;;;;;;;9.80;6.43;;;;;;;;;;5059211;28;20045;-86
2021/08/10 06:38:47;;;;;;;8.15;5.97;;;;;;;;;;5058423;28;20032;-83
2021/08/10 06:41:13;;;;;;;8.27;5.40;;;;;;;;;;5059275;28;20036;-83
2021/08/10 06:43:39;;;;;;;9.13;5.75;;;;;;;;;;5059030;28;20411;-83
2021/08/10 06:46:06;;;;;;;11.60;6.18;;;;;;;;;;5058463;28;20318;-83
2021/08/10 06:48:32;;;;;;;8.48;6.07;;;;;;;;;;5059151;28;20043;-83
2021/08/10 06:51:01;;;;;;;9.75;6.35;;;;;;;;;;5058974;28;20045;-83
2021/08/10 06:53:27;;;;;;;7.57;5.45;;;;;;;;;;5057927;28;20104;-83
2021/08/10 06:55:53;;;;;;;10.10;5.80;;;;;;;;;;5057980;28;20075;-84
2021/08/10 06:58:19;;;;;;;9.10;5.38;;;;;;;;;;5057992;28;20029;-84
2021/08/10 07:00:45;;;;;;;8.57;5.30;;;;;;;;;;5058843;28;20107;-83
2021/08/10 07:03:11;;;;;;;8.90;5.97;;;;;;;;;;5058058;28;20037;-83
2021/08/10 07:05:37;;;;;;;8.85;5.38;;;;;;;;;;5058786;28;20426;-82
2021/08/10 07:08:04;;;;;;;8.32;5.57;;;;;;;;;;5058659;28;20033;-83
2021/08/10 07:10:30;;;;;;;8.98;5.55;;;;;;;;;;5058972;28;20025;-83
2021/08/10 07:12:56;;;;;;;9.27;5.35;;;;;;;;;;5058740;28;20025;-83
2021/08/10 07:15:22;;;;;;;7.88;5.72;;;;;;;;;;5058801;28;20021;-83
2021/08/10 07:17:48;;;;;;;7.00;5.03;;;;;;;;;;5058628;28;20021;-83
2021/08/10 07:20:14;;;;;;;8.57;5.82;;;;;;;;;;5058753;28;20135;-83
2021/08/10 07:22:40;;;;;;;7.72;5.53;;;;;;;;;;5058681;28;20039;-83
2021/08/10 07:25:06;;;;;;;6.85;5.85;;;;;;;;;;5058394;28;20057;-83
2021/08/10 07:27:32;;;;;;;7.85;5.43;;;;;;;;;;5058428;28;20112;-83
2021/08/10 07:30:00;;;;;;;7.40;5.18;;;;;;;;;;5058424;28;20025;-83
2021/08/10 07:32:27;;;;;;;6.43;4.93;;;;;;;;;;5058377;28;20096;-83
2021/08/10 07:34:53;;;;;;;6.68;4.43;;;;;;;;;;5058435;28;20041;-83
2021/08/10 07:37:19;;;;;;;8.98;5.68;;;;;;;;;;5058303;28;20025;-83
2021/08/10 07:39:45;;;;;;;7.38;5.10;;;;;;;;;;5058095;28;20024;-83
2021/08/10 07:42:11;;;;;;;10.85;4.65;;;;;;;;;;5057153;28;20120;-83
2021/08/10 07:44:37;;;;;;;11.20;5.40;;;;;;;;;;5058291;28;20071;-83
2021/08/10 07:47:06;;;;;;;6.63;5.18;;;;;;;;;;5057143;28;20033;-84
2021/08/10 07:49:34;;;;;;;10.70;5.25;;;;;;;;;;5056928;28;20312;-83
2021/08/10 07:52:00;;;;;;;6.25;4.55;;;;;;;;;;5058147;28;20021;-82
2021/08/10 07:54:26;;;;;;;7.00;5.22;;;;;;;;;;5056977;28;20037;-83
2021/08/10 07:56:52;;;;;;;9.00;5.45;;;;;;;;;;5057919;28;20017;-83
2021/08/10 07:59:18;;;;;;;6.15;4.38;;;;;;;;;;5057748;28;20043;-83
2021/08/10 08:01:44;;;;;;;11.20;4.57;;;;;;;;;;5056635;28;20031;-83
2021/08/10 08:04:10;;;;;;;7.07;4.72;;;;;;;;;;5056839;28;20037;-83
2021/08/10 08:06:36;;;;;;;8.35;4.43;;;;;;;;;;5057627;28;20441;-83
2021/08/10 08:09:02;;;;;;;10.68;4.38;;;;;;;;;;5057511;28;20396;-83
2021/08/10 08:11:29;;;;;;;9.30;4.63;;;;;;;;;;5057683;28;20028;-83
2021/08/10 08:13:55;;;;;;;6.78;4.00;;;;;;;;;;5057597;28;20021;-83
2021/08/10 08:16:21;;;;;;;9.32;6.40;;;;;;;;;;5057672;28;20013;-83
2021/08/10 08:18:47;;;;;;;6.53;4.30;;;;;;;;;;5056630;28;20043;-83
2021/08/10 08:21:13;;;;;;;9.52;4.32;;;;;;;;;;5057686;28;20029;-83
2021/08/10 08:23:39;;;;;;;8.70;4.38;;;;;;;;;;5057508;28;20104;-83
2021/08/10 08:26:06;;;;;;;8.23;4.22;;;;;;;;;;5057272;28;20441;-83
2021/08/10 08:28:33;;;;;;;8.60;4.50;;;;;;;;;;5057332;28;20029;-83
2021/08/10 08:31:01;;;;;;;6.65;4.50;;;;;;;;;;5056402;28;20056;-83
2021/08/10 08:33:27;;;;;;;7.00;4.50;;;;;;;;;;5056316;28;20025;-83
2021/08/10 08:35:53;;;;;;;7.63;4.72;;;;;;;;;;5057335;28;20025;-83
2021/08/10 08:38:20;;;;;;;8.73;4.20;;;;;;;;;;5057396;28;20025;-82
2021/08/10 08:40:47;;;;;;;9.35;4.35;;;;;;;;;;5056034;28;20061;-83
2021/08/10 08:43:14;;;;;;;9.52;4.68;;;;;;;;;;5057172;28;20047;-83
2021/08/10 08:45:43;;;;;;;8.60;5.18;;;;;;;;;;5057242;28;20039;-83
2021/08/10 08:48:12;;;;;;;8.15;4.60;;;;;;;;;;5056912;28;20047;-83
2021/08/10 08:50:38;;;;;;;6.50;4.00;;;;;;;;;;5057320;28;20049;-84
2021/08/10 08:53:05;;;;;;;8.52;3.88;;;;;;;;;;5056179;28;20033;-83
2021/08/10 08:55:31;;;;;;;9.07;4.50;;;;;;;;;;5057207;28;20312;-83
2021/08/10 08:57:57;;;;;;;6.65;3.95;;;;;;;;;;5056094;28;20037;-83
2021/08/10 09:00:24;;;;;;;7.18;3.92;;;;;;;;;;5056939;28;20025;-83
2021/08/10 09:02:50;;;;;;;8.60;3.70;;;;;;;;;;5056804;28;20036;-83
2021/08/10 09:05:16;;;;;;;7.57;3.95;;;;;;;;;;5056795;28;20040;-82
2021/08/10 09:07:43;;;;;;;7.53;4.20;;;;;;;;;;5056770;28;20362;-83
2021/08/10 09:10:13;;;;;;;6.63;4.43;;;;;;;;;;5056898;28;20028;-83
2021/08/10 09:12:46;;;;;;;6.18;3.63;;;;;;;;;;5056817;28;20043;-83
2021/08/10 09:15:28;;;;;;;5.72;3.70;;;;;;;;;;5055764;28;20025;-82
2021/08/10 09:17:54;;;;;;;52.22;31.08;;;;;;;;;;5056786;28;20028;-82
2021/08/10 09:20:22;;;;;;;12.98;7.20;;;;;;;;;;5056805;28;20039;-82
2021/08/10 09:22:51;;;;;;;251.45;216.52;;;;;;;;;;5055432;28;20465;-83
2021/08/10 09:25:18;;;;;;;12.23;8.85;;;;;;;;;;5056347;28;20049;-83
2021/08/10 09:27:44;;;;;;;8.27;5.75;;;;;;;;;;5056316;28;20071;-82
2021/08/10 09:30:16;;;;;;;10.52;8.07;;;;;;;;;;5056111;28;20024;-81
2021/08/10 09:32:54;;;;;;;287.63;256.58;;;;;;;;;;5055158;28;20032;-83
2021/08/10 09:35:21;;;;;;;16.50;13.50;;;;;;;;;;5056484;28;20024;-82
2021/08/10 09:38:03;;;;;;;9.30;6.93;;;;;;;;;;5056382;28;20403;-82
2021/08/10 09:40:30;;;;;;;10.55;5.30;;;;;;;;;;5056459;28;20037;-83
2021/08/10 09:43:16;;;;;;;6.68;5.45;;;;;;;;;;5056838;28;20036;-83
2021/08/10 09:45:42;;;;;;;7.68;2.70;;;;;;;;;;5056333;28;20358;-83
2021/08/10 09:48:18;;;;;;;6.22;3.00;;;;;;;;;;5056267;28;20025;-83
2021/08/10 09:50:44;;;;;;;6.57;3.25;;;;;;;;;;5056467;28;20025;-83
2021/08/10 09:53:14;;;;;;;5.72;3.03;;;;;;;;;;5056168;28;20021;-83
2021/08/10 09:55:51;;;;;;;7.15;3.58;;;;;;;;;;5056631;28;20051;-82
2021/08/10 09:58:17;;;;;;;3.95;2.53;;;;;;;;;;5055385;28;20408;-83
2021/08/10 10:00:45;;;;;;;4.45;2.65;;;;;;;;;;5055474;28;20506;-83
2021/08/10 10:03:15;;;;;;;6.35;2.85;;;;;;;;;;5055847;28;20164;-82
2021/08/10 10:05:44;;;;;;;4.22;2.70;;;;;;;;;;5060051;28;20032;-83
2021/08/10 10:08:19;;;;;;;7.05;2.50;;;;;;;;;;5059696;28;20075;-83
2021/08/10 10:10:46;;;;;;;4.75;2.90;;;;;;;;;;5060029;28;20040;-83
2021/08/10 10:13:15;;;;;;;6.93;2.83;;;;;;;;;;5059972;28;20020;-83
2021/08/10 10:15:41;;;;;;;9.80;2.55;;;;;;;;;;5059705;28;20028;-83
2021/08/10 10:18:08;;;;;;;7.47;2.67;;;;;;;;;;5059519;28;20100;-82
2021/08/10 10:20:38;;;;;;;4.97;2.67;;;;;;;;;;5059536;28;20462;-83
2021/08/10 10:23:06;;;;;;;3.38;2.50;;;;;;;;;;5058677;28;20033;-83
2021/08/10 10:25:33;;;;;;;4.85;2.42;;;;;;;;;;5059446;28;20063;-83
2021/08/10 10:27:59;;;;;;;4.22;2.67;;;;;;;;;;5059388;28;20060;-82
2021/08/10 10:30:26;;;;;;;7.43;2.95;;;;;;;;;;5058662;28;20036;-82
2021/08/10 10:32:52;;;;;;;7.65;2.80;;;;;;;;;;5059461;28;20368;-82
2021/08/10 10:35:18;;;;;;;6.00;2.60;;;;;;;;;;5058213;28;20029;-82
2021/08/10 10:37:49;;;;;;;4.40;3.00;;;;;;;;;;5059202;28;20032;-82
2021/08/10 10:40:17;;;;;;;4.97;2.97;;;;;;;;;;5059045;28;20408;-82
2021/08/10 10:42:45;;;;;;;8.80;4.07;;;;;;;;;;5059239;28;20032;-82
2021/08/10 10:45:30;;;;;;;6.55;3.10;;;;;;;;;;5059226;28;20052;-81
2021/08/10 11:05:32;;;;;;;5.00;2.90;;;;;;;;;;5114983;27;20418;-81
2021/08/10 11:08:00;;;;;;;6.72;2.60;;;;;;;;;;5114491;28;20032;-81
2021/08/10 11:10:40;;;;;;;4.05;2.28;;;;;;;;;;5113253;28;20466;-81
2021/08/10 11:13:26;;;;;;;3.22;2.17;;;;;;;;;;5114659;28;20035;-81
2021/08/10 11:15:52;;;;;;;2.47;1.80;;;;;;;;;;5114473;28;20024;-81
2021/08/10 11:18:20;;;;;;;3.17;2.20;;;;;;;;;;5114570;28;20027;-81
2021/08/10 11:20:48;;;;;;;9.15;5.97;;;;;;;;;;5114604;28;20016;-81
2021/08/10 11:23:24;;;;;;;7.05;3.47;;;;;;;;;;5114627;28;20020;-81
2021/08/10 11:25:51;;;;;;;5.53;2.20;;;;;;;;;;5114472;28;20020;-81
2021/08/10 11:28:26;;;;;;;7.68;3.45;;;;;;;;;;5114680;28;20085;-81
2021/08/10 11:30:52;;;;;;;3.55;2.30;;;;;;;;;;5114271;28;20031;-81
2021/08/10 11:33:32;;;;;;;3.53;2.10;;;;;;;;;;5114182;28;20024;-82
2021/08/10 11:36:10;;;;;;;4.57;1.92;;;;;;;;;;5113307;28;20302;-82
2021/08/10 11:38:56;;;;;;;2.55;2.08;;;;;;;;;;5113141;28;20107;-82
2021/08/10 11:41:28;;;;;;;6.10;2.20;;;;;;;;;;5051615;28;20423;-82
2021/08/10 11:43:56;;;;;;;6.07;2.15;;;;;;;;;;5051793;28;20052;-82
2021/08/10 11:46:32;;;;;;;5.00;2.10;;;;;;;;;;5051657;28;20038;-82
2021/08/10 11:48:59;;;;;;;7.20;2.30;;;;;;;;;;5051625;28;20111;-82
2021/08/10 11:51:37;;;;;;;5.93;2.15;;;;;;;;;;5051605;28;20025;-82
2021/08/10 11:54:24;;;;;;;3.75;2.50;;;;;;;;;;5051556;28;20025;-82
2021/08/10 11:56:54;;;;;;;4.35;2.50;;;;;;;;;;5037160;28;20414;-83
2021/08/10 11:59:23;;;;;;;3.75;2.30;;;;;;;;;;5014943;28;20026;-83
2021/08/10 12:01:49;;;;;;;3.20;2.38;;;;;;;;;;5014849;28;20140;-83
2021/08/10 12:04:15;;;;;;;4.43;2.30;;;;;;;;;;5030640;28;20049;-82
2021/08/10 12:06:42;;;;;;;7.03;2.42;;;;;;;;;;5001371;28;20038;-82
2021/08/10 12:09:09;;;;;;;4.55;2.42;;;;;;;;;;5018105;28;20129;-83
2021/08/10 12:11:36;;;;;;;4.80;2.45;;;;;;;;;;5018186;28;20034;-83
2021/08/10 12:14:14;;;;;;;4.45;2.40;;;;;;;;;;5018115;28;20100;-83
2021/08/10 12:16:57;;;;;;;4.32;2.38;;;;;;;;;;5018193;28;20427;-82
2021/08/10 12:19:32;;;;;;;12.18;7.78;;;;;;;;;;5073069;28;20479;-83
2021/08/10 12:21:59;;;;;;;3.55;2.20;;;;;;;;;;5079929;28;20025;-83
2021/08/10 12:24:26;;;;;;;4.55;2.38;;;;;;;;;;5079251;28;20462;-83
2021/08/10 12:26:54;;;;;;;6.53;2.53;;;;;;;;;;5078588;28;20043;-83
2021/08/10 12:29:21;;;;;;;10.50;7.60;;;;;;;;;;5079671;28;20035;-83
2021/08/10 12:31:47;;;;;;;3.58;2.10;;;;;;;;;;5079459;28;20028;-83
2021/08/10 12:34:13;;;;;;;5.90;2.92;;;;;;;;;;5079585;28;20071;-83
2021/08/10 12:36:52;;;;;;;4.85;1.98;;;;;;;;;;5079325;28;20420;-82
2021/08/10 12:39:18;;;;;;;3.25;2.20;;;;;;;;;;5079294;28;20025;-82
2021/08/10 12:41:46;;;;;;;4.57;2.67;;;;;;;;;;5079098;28;20016;-82
2021/08/10 12:44:12;;;;;;;4.95;2.13;;;;;;;;;;5077358;28;20039;-82
2021/08/10 12:46:39;;;;;;;4.72;2.25;;;;;;;;;;5079150;28;20028;-83
2021/08/10 12:49:10;;;;;;;4.20;1.90;;;;;;;;;;5078801;28;20025;-83
2021/08/10 12:51:36;;;;;;;;;;;;;;;;;;5078999;28;20069;-82
2021/08/10 12:54:22;;;;;;;2.95;2.08;;;;;;;;;;5078399;28;19908;-82
2021/08/10 12:56:48;;;;;;;6.25;2.45;;;;;;;;;;5093957;28;20020;-82
2021/08/10 12:59:15;;;;;;;5.57;2.17;;;;;;;;;;5078524;28;20023;-82
2021/08/10 13:01:42;;;;;;;3.72;2.30;;;;;;;;;;5078537;28;20031;-82
2021/08/10 13:04:08;;;;;;;12.45;2.88;;;;;;;;;;5078601;28;20338;-82
2021/08/10 13:06:34;;;;;;;6.35;2.55;;;;;;;;;;5078299;28;20028;-85
2021/08/10 13:09:01;;;;;;;9.10;2.78;;;;;;;;;;5078874;28;20103;-85
2021/08/10 13:11:27;;;;;;;5.13;2.25;;;;;;;;;;5077780;28;20064;-86
2021/08/10 13:14:04;;;;;;;4.50;2.30;;;;;;;;;;5078438;28;20035;-86
2021/08/10 13:16:34;;;;;;;5.45;2.47;;;;;;;;;;5056346;28;20029;-85
2021/08/10 13:19:11;;;;;;;7.30;2.70;;;;;;;;;;5058566;28;20028;-86
2021/08/10 13:21:43;;;;;;;9.70;2.80;;;;;;;;;;5058655;28;20032;-86
2021/08/10 13:24:09;;;;;;;3.58;2.40;;;;;;;;;;5057522;28;20136;-86
2021/08/10 13:26:42;;;;;;;3.75;2.20;;;;;;;;;;5057429;28;20021;-86
2021/08/10 13:29:08;;;;;;;5.82;2.13;;;;;;;;;;5058749;28;20035;-86
2021/08/10 13:31:45;;;;;;;8.57;2.70;;;;;;;;;;5058355;28;20025;-86
2021/08/10 13:34:11;;;;;;;6.60;2.72;;;;;;;;;;5057211;28;20363;-86
2021/08/10 13:36:37;;;;;;;4.65;2.50;;;;;;;;;;5058321;28;20166;-85
2021/08/10 13:39:04;;;;;;;5.25;2.28;;;;;;;;;;5058298;28;20362;-85
2021/08/10 13:41:31;;;;;;;4.30;2.80;;;;;;;;;;5058001;28;20017;-85
2021/08/10 13:43:58;;;;;;;3.30;2.00;;;;;;;;;;5057062;28;20322;-85
2021/08/10 13:46:29;;;;;;;3.72;2.28;;;;;;;;;;5075955;28;20383;-85
2021/08/10 13:48:55;;;;;;;;;;;;;;;;;;5078554;28;20029;-86
2021/08/10 13:51:21;;;;;;;3.95;2.30;;;;;;;;;;5078209;28;20372;-86
2021/08/10 13:53:47;;;;;;;4.13;2.03;;;;;;;;;;5077902;28;20052;-86
2021/08/10 13:56:13;;;;;;;3.65;2.40;;;;;;;;;;5077868;28;20021;-86
2021/08/10 13:58:39;;;;;;;3.25;2.33;;;;;;;;;;5077925;28;20299;-86
2021/08/10 14:01:13;;;;;;;3.80;2.30;;;;;;;;;;5077941;28;20398;-86
2021/08/10 14:03:39;;;;;;;5.80;2.40;;;;;;;;;;5077866;28;20430;-86
2021/08/10 14:06:05;;;;;;;6.07;2.17;;;;;;;;;;5078016;28;20028;-86
2021/08/10 14:08:32;;;;;;;5.93;2.38;;;;;;;;;;5077691;28;20020;-86
2021/08/10 14:10:58;;;;;;;4.63;2.38;;;;;;;;;;5076787;28;20056;-86
2021/08/10 14:13:24;;;;;;;3.55;2.65;;;;;;;;;;5077472;28;20024;-85
2021/08/10 14:15:50;;;;;;;4.57;2.40;;;;;;;;;;5092193;28;20406;-86
2021/08/10 14:18:16;;;;;;;5.38;2.35;;;;;;;;;;5096519;28;20066;-86
2021/08/10 14:20:43;;;;;;;4.35;2.40;;;;;;;;;;5096518;28;20028;-86
2021/08/10 14:23:09;;;;;;;2.97;2.47;;;;;;;;;;5097768;28;20111;-86
2021/08/10 14:25:35;;;;;;;7.13;2.90;;;;;;;;;;5098098;28;20042;-85
2021/08/10 14:28:01;;;;;;;6.28;2.35;;;;;;;;;;5097261;28;20035;-85
2021/08/10 14:30:27;;;;;;;4.97;2.28;;;;;;;;;;5096381;28;20032;-85
2021/08/10 14:32:53;;;;;;;2.83;2.53;;;;;;;;;;5097549;28;20039;-86
2021/08/10 14:35:19;;;;;;;5.28;2.30;;;;;;;;;;5097598;28;20024;-85
2021/08/10 14:37:45;;;;;;;4.68;2.60;;;;;;;;;;5096565;28;20028;-86
2021/08/10 14:40:12;;;;;;;3.85;2.85;;;;;;;;;;5096597;28;20321;-85
2021/08/10 14:42:40;;;;;;;4.55;2.30;;;;;;;;;;5096538;28;20020;-86
2021/08/10 14:45:06;;;;;;;4.68;2.58;;;;;;;;;;5097283;28;20081;-85
2021/08/10 14:47:35;;;;;;;2.90;1.95;;;;;;;;;;5097562;28;20034;-85
2021/08/10 14:50:01;;;;;;;5.00;2.50;;;;;;;;;;5096174;28;20040;-85
2021/08/10 14:52:27;;;;;;;3.45;2.45;;;;;;;;;;5097302;28;20031;-85
2021/08/10 14:54:53;;;;;;;3.70;2.65;;;;;;;;;;5097324;28;20103;-85
2021/08/10 14:57:19;;;;;;;5.45;2.40;;;;;;;;;;5097150;28;20020;-85
2021/08/10 14:59:45;;;;;;;5.20;2.42;;;;;;;;;;5097370;28;20412;-86
2021/08/10 15:02:12;;;;;;;5.82;2.90;;;;;;;;;;5097324;28;20402;-85